createdAt,value
2019-03-29T00:04:06.899Z,87.00
2019-03-29T00:10:19.222Z,86.60
2019-03-29T00:13:23.166Z,86.30
2019-03-29T00:16:19.490Z,86.30
2019-03-29T00:18:42.911Z,86.90
2019-03-29T00:21:13.353Z,86.80
2019-03-29T00:23:49.952Z,87.40
2019-03-29T00:26:21.650Z,87.90
2019-03-29T00:29:13.111Z,87.50
2019-03-29T00:31:46.426Z,87.80
2019-03-29T00:34:33.676Z,87.50
2019-03-29T00:36:59.164Z,87.70
2019-03-29T00:39:31.213Z,88.50
2019-03-29T00:42:14.871Z,88.90
2019-03-29T00:44:56.576Z,88.70
2019-03-29T00:47:31.150Z,88.30
2019-03-29T00:50:00.360Z,88.40
2019-03-29T00:52:36.937Z,88.50
2019-03-29T00:55:12.858Z,88.60
2019-03-29T00:57:41.556Z,88.80
2019-03-29T01:00:11.450Z,89.20
2019-03-29T01:02:40.139Z,89.10
2019-03-29T01:05:08.909Z,89.00
2019-03-29T01:07:37.619Z,89.30
2019-03-29T01:10:11.101Z,89.50
2019-03-29T01:12:39.666Z,89.30
2019-03-29T01:15:09.478Z,89.30
2019-03-29T01:17:38.340Z,89.30
2019-03-29T01:20:07.753Z,88.90
2019-03-29T01:22:36.436Z,88.60
2019-03-29T01:25:08.021Z,88.70
2019-03-29T01:27:36.865Z,89.80
2019-03-29T01:30:07.209Z,89.90
2019-03-29T01:32:35.872Z,89.90
2019-03-29T01:35:06.450Z,90.00
2019-03-29T01:37:35.002Z,89.80
2019-03-29T01:40:05.070Z,89.50
2019-03-29T01:42:33.648Z,89.40
2019-03-29T01:45:02.234Z,89.10
2019-03-29T01:47:30.822Z,89.90
2019-03-29T01:49:59.434Z,89.80
2019-03-29T01:52:30.236Z,89.70
2019-03-29T01:54:58.464Z,89.60
2019-03-29T01:57:27.124Z,89.60
2019-03-29T01:59:55.691Z,88.80
2019-03-29T02:02:24.357Z,88.80
2019-03-29T02:04:53.010Z,88.40
2019-03-29T02:07:21.617Z,89.00
2019-03-29T02:09:50.258Z,89.30
2019-03-29T02:12:18.828Z,89.70
2019-03-29T02:14:47.633Z,89.40
2019-03-29T02:17:16.290Z,88.90
2019-03-29T02:19:44.960Z,88.50
2019-03-29T02:22:13.549Z,88.70
2019-03-29T02:24:42.348Z,89.40
2019-03-29T02:27:10.859Z,89.90
2019-03-29T02:29:39.486Z,90.10
2019-03-29T02:32:08.155Z,89.80
2019-03-29T02:34:36.751Z,89.20
2019-03-29T02:37:05.298Z,88.80
2019-03-29T02:39:33.946Z,88.90
2019-03-29T02:42:02.645Z,88.90
2019-03-29T02:44:31.281Z,89.00
2019-03-29T02:46:59.832Z,88.70
2019-03-29T02:49:28.484Z,88.50
2019-03-29T02:51:57.081Z,88.40
2019-03-29T02:54:25.738Z,89.20
2019-03-29T02:56:54.403Z,90.00
2019-03-29T02:59:23.100Z,90.00
2019-03-29T03:01:51.795Z,89.90
2019-03-29T03:04:20.270Z,89.50
2019-03-29T03:06:48.858Z,89.50
2019-03-29T03:09:17.546Z,89.10
2019-03-29T03:11:46.157Z,89.10
2019-03-29T03:14:14.692Z,88.90
2019-03-29T03:16:43.486Z,88.60
2019-03-29T03:19:12.018Z,88.40
2019-03-29T03:21:40.707Z,88.60
2019-03-29T03:24:09.282Z,89.00
2019-03-29T03:26:37.926Z,89.20
2019-03-29T03:29:06.402Z,89.50
2019-03-29T03:31:35.078Z,89.70
2019-03-29T03:34:03.949Z,90.00
2019-03-29T03:36:32.576Z,90.10
2019-03-29T03:39:01.289Z,90.00
2019-03-29T03:41:29.936Z,89.60
2019-03-29T03:43:58.557Z,89.30
2019-03-29T03:46:27.155Z,88.70
2019-03-29T03:49:11.357Z,89.50
2019-03-29T03:51:48.126Z,89.50
2019-03-29T03:54:23.412Z,89.10
2019-03-29T03:56:52.659Z,88.90
2019-03-29T03:59:23.257Z,89.70
2019-03-29T04:01:51.922Z,89.00
2019-03-29T04:04:30.398Z,88.70
2019-03-29T04:07:04.684Z,89.20
2019-03-29T04:09:48.433Z,89.70
2019-03-29T04:12:14.972Z,90.00
2019-03-29T04:14:39.236Z,90.00
2019-03-29T04:17:07.840Z,90.30
2019-03-29T04:20:07.150Z,90.40
2019-03-29T04:22:40.285Z,90.10
2019-03-29T04:25:11.995Z,90.10
2019-03-29T04:27:45.563Z,89.80
2019-03-29T04:30:18.863Z,88.90
2019-03-29T04:32:52.654Z,89.50
2019-03-29T04:35:34.556Z,88.60
2019-03-29T04:41:42.929Z,89.40
2019-03-29T04:44:11.513Z,90.00
2019-03-29T04:46:49.197Z,89.80
2019-03-29T04:49:30.328Z,89.50
2019-03-29T04:58:01.364Z,89.40
2019-03-29T05:00:30.201Z,88.50
2019-03-29T05:03:25.126Z,89.30
2019-03-29T05:06:06.768Z,89.50
2019-03-29T05:08:35.328Z,88.90
2019-03-29T05:11:04.083Z,88.60
2019-03-29T05:13:32.738Z,88.40
2019-03-29T05:16:01.578Z,88.90
2019-03-29T05:18:30.314Z,88.10
2019-03-29T05:20:58.972Z,88.00
2019-03-29T05:23:27.670Z,88.40
2019-03-29T05:25:56.232Z,88.30
2019-03-29T05:28:24.969Z,88.40
2019-03-29T05:30:55.066Z,88.30
2019-03-29T05:33:25.219Z,87.70
2019-03-29T05:35:54.094Z,87.40
2019-03-29T05:38:22.958Z,86.90
2019-03-29T05:40:51.849Z,87.90
2019-03-29T05:43:20.870Z,87.50
2019-03-29T05:45:49.799Z,87.30
2019-03-29T05:48:18.673Z,88.20
2019-03-29T05:50:47.634Z,87.80
2019-03-29T05:53:16.610Z,87.50
2019-03-29T05:55:48.217Z,87.20
2019-03-29T05:58:15.770Z,86.60
2019-03-29T06:00:44.528Z,86.80
2019-03-29T06:03:13.234Z,86.60
2019-03-29T06:05:41.878Z,86.70
2019-03-29T06:08:11.247Z,86.70
2019-03-29T06:10:49.220Z,87.10
2019-03-29T06:13:14.371Z,86.80
2019-03-29T06:15:43.114Z,87.40
2019-03-29T06:18:13.362Z,87.70
2019-03-29T06:20:41.998Z,87.60
2019-03-29T06:23:10.648Z,88.60
2019-03-29T06:25:39.280Z,88.60
2019-03-29T06:28:07.991Z,88.70
2019-03-29T06:30:36.796Z,89.20
2019-03-29T06:33:05.447Z,89.50
2019-03-29T06:35:36.137Z,89.40
2019-03-29T06:38:06.201Z,89.80
2019-03-29T06:40:34.736Z,89.50
2019-03-29T06:43:03.469Z,89.60
2019-03-29T06:45:32.090Z,89.80
2019-03-29T06:48:00.667Z,90.00
2019-03-29T06:50:29.372Z,89.90
2019-03-29T06:52:58.024Z,90.00
2019-03-29T06:55:26.777Z,90.10
2019-03-29T06:57:55.359Z,90.10
2019-03-29T07:00:23.895Z,90.00
2019-03-29T07:02:52.457Z,90.20
2019-03-29T07:05:21.042Z,90.20
2019-03-29T07:07:49.741Z,90.40
2019-03-29T07:10:18.211Z,90.40
2019-03-29T07:12:46.897Z,90.20
2019-03-29T07:15:15.519Z,90.10
2019-03-29T07:17:44.096Z,89.90
2019-03-29T07:20:12.692Z,90.00
2019-03-29T07:22:41.244Z,89.10
2019-03-29T07:25:09.931Z,88.80
2019-03-29T07:27:44.751Z,88.20
2019-03-29T07:30:09.511Z,88.00
2019-03-29T07:32:38.104Z,88.10
2019-03-29T07:35:07.864Z,87.90
2019-03-29T07:37:36.377Z,88.50
2019-03-29T07:40:05.467Z,87.50
2019-03-29T07:42:34.152Z,87.60
2019-03-29T07:45:02.817Z,88.00
2019-03-29T07:47:31.395Z,86.60
2019-03-29T07:50:00.347Z,86.10
2019-03-29T07:52:29.047Z,86.50
2019-03-29T07:54:57.799Z,85.80
2019-03-29T07:57:26.574Z,85.60
2019-03-29T07:59:55.127Z,85.50
2019-03-29T08:02:23.817Z,85.60
2019-03-29T08:04:52.522Z,86.10
2019-03-29T08:07:27.049Z,84.30
2019-03-29T08:09:51.383Z,83.80
2019-03-29T08:12:20.058Z,83.30
2019-03-29T08:14:48.602Z,83.40
2019-03-29T08:17:17.143Z,82.70
2019-03-29T08:19:45.799Z,81.40
2019-03-29T08:22:14.422Z,81.00
2019-03-29T08:24:43.058Z,81.10
2019-03-29T08:27:12.709Z,80.50
2019-03-29T08:29:41.405Z,79.30
2019-03-29T08:32:10.038Z,78.80
2019-03-29T08:34:38.662Z,76.20
2019-03-29T08:37:07.287Z,74.40
2019-03-29T08:39:35.958Z,75.40
2019-03-29T08:42:04.537Z,75.20
2019-03-29T08:44:33.134Z,74.10
2019-03-29T08:47:01.842Z,73.70
2019-03-29T08:49:30.521Z,72.20
2019-03-29T08:51:59.265Z,71.80
2019-03-29T08:54:27.896Z,71.30
2019-03-29T08:56:56.692Z,69.80
2019-03-29T08:59:25.324Z,68.70
2019-03-29T09:01:54.025Z,68.60
2019-03-29T09:04:23.347Z,66.30
2019-03-29T09:06:53.852Z,67.00
2019-03-29T09:09:22.389Z,65.00
2019-03-29T09:11:50.934Z,65.10
2019-03-29T09:14:19.575Z,62.00
2019-03-29T09:16:57.159Z,63.80
2019-03-29T09:19:25.850Z,61.40
2019-03-29T09:21:54.430Z,62.20
2019-03-29T09:24:23.074Z,60.20
2019-03-29T09:26:51.670Z,59.10
2019-03-29T09:29:20.473Z,58.70
2019-03-29T09:31:49.102Z,58.10
2019-03-29T09:34:17.728Z,56.20
2019-03-29T09:36:46.356Z,54.80
2019-03-29T09:39:15.082Z,55.70
2019-03-29T09:41:43.617Z,53.60
2019-03-29T09:44:12.263Z,53.80
2019-03-29T09:46:40.927Z,53.90
2019-03-29T09:49:09.677Z,52.70
2019-03-29T09:51:38.358Z,50.20
2019-03-29T09:54:07.023Z,50.60
2019-03-29T09:56:39.149Z,49.70
2019-03-29T09:59:06.015Z,50.60
2019-03-29T10:01:34.665Z,49.70
2019-03-29T10:04:03.323Z,47.40
2019-03-29T10:06:31.998Z,47.40
2019-03-29T10:09:00.568Z,48.80
2019-03-29T10:11:29.271Z,47.60
2019-03-29T10:13:57.897Z,48.20
2019-03-29T10:16:26.581Z,48.40
2019-03-29T10:18:55.313Z,46.10
2019-03-29T10:21:24.131Z,45.10
2019-03-29T10:23:52.708Z,46.10
2019-03-29T10:26:21.352Z,47.80
2019-03-29T10:28:49.951Z,46.60
2019-03-29T10:31:31.486Z,47.20
2019-03-29T10:33:49.428Z,46.50
2019-03-29T10:36:18.198Z,44.30
2019-03-29T10:38:47.011Z,46.40
2019-03-29T10:41:15.851Z,44.00
2019-03-29T10:43:44.508Z,45.10
2019-03-29T10:46:13.235Z,44.50
2019-03-29T10:48:41.901Z,43.50
2019-03-29T10:51:10.606Z,43.30
2019-03-29T10:53:39.241Z,43.20
2019-03-29T10:56:08.052Z,44.10
2019-03-29T10:58:36.738Z,43.30
2019-03-29T11:01:05.602Z,42.70
2019-03-29T11:03:34.261Z,42.40
2019-03-29T11:06:04.856Z,41.20
2019-03-29T11:08:33.441Z,40.90
2019-03-29T11:11:03.017Z,38.90
2019-03-29T11:13:33.306Z,38.60
2019-03-29T11:16:01.997Z,40.50
2019-03-29T11:18:30.668Z,42.40
2019-03-29T11:20:59.309Z,42.40
2019-03-29T11:23:27.921Z,41.60
2019-03-29T11:25:56.622Z,41.20
2019-03-29T11:28:25.270Z,40.90
2019-03-29T11:30:53.865Z,43.20
2019-03-29T11:33:22.585Z,41.80
2019-03-29T11:35:51.297Z,40.60
2019-03-29T11:38:19.909Z,41.10
2019-03-29T11:40:48.588Z,40.90
2019-03-29T11:43:26.554Z,40.60
2019-03-29T11:45:47.642Z,41.50
2019-03-29T11:48:16.297Z,41.80
2019-03-29T11:50:44.864Z,42.40
2019-03-29T11:53:13.591Z,41.80
2019-03-29T11:55:42.399Z,39.60
2019-03-29T11:58:11.109Z,38.90
2019-03-29T12:00:41.244Z,39.20
2019-03-29T12:03:10.035Z,39.40
2019-03-29T12:05:38.914Z,41.50
2019-03-29T12:08:07.642Z,40.30
2019-03-29T12:10:36.447Z,38.30
2019-03-29T12:13:07.071Z,37.70
2019-03-29T12:15:35.795Z,39.60
2019-03-29T12:18:04.543Z,38.80
2019-03-29T12:20:33.192Z,38.90
2019-03-29T12:23:01.847Z,38.70
2019-03-29T12:25:30.575Z,37.80
2019-03-29T12:27:59.225Z,37.50
2019-03-29T12:30:31.812Z,37.80
2019-03-29T12:32:58.119Z,37.80
2019-03-29T12:35:26.810Z,38.10
2019-03-29T12:37:55.377Z,39.20
2019-03-29T12:40:24.209Z,38.20
2019-03-29T12:42:52.773Z,37.30
2019-03-29T12:45:21.517Z,35.40
2019-03-29T12:47:50.099Z,36.50
2019-03-29T12:50:18.893Z,39.90
2019-03-29T12:52:47.571Z,38.00
2019-03-29T12:55:16.317Z,37.60
2019-03-29T12:57:45.079Z,38.30
2019-03-29T13:00:14.175Z,39.40
2019-03-29T13:02:42.979Z,40.30
2019-03-29T13:05:11.774Z,38.70
2019-03-29T13:07:40.363Z,38.70
2019-03-29T13:10:09.906Z,37.20
2019-03-29T13:12:38.539Z,37.00
2019-03-29T13:15:08.591Z,34.40
2019-03-29T13:17:37.625Z,33.70
2019-03-29T13:20:06.760Z,36.20
2019-03-29T13:22:35.432Z,38.90
2019-03-29T13:25:07.516Z,36.00
2019-03-29T13:27:36.478Z,37.90
2019-03-29T13:30:07.275Z,37.50
2019-03-29T13:32:36.121Z,37.20
2019-03-29T13:35:06.853Z,36.70
2019-03-29T13:37:35.470Z,36.80
2019-03-29T13:40:10.304Z,34.90
2019-03-29T13:42:40.738Z,35.80
2019-03-29T13:45:10.695Z,35.10
2019-03-29T13:47:39.526Z,36.10
2019-03-29T13:50:09.932Z,36.60
2019-03-29T13:52:38.659Z,35.20
2019-03-29T13:55:07.544Z,37.40
2019-03-29T13:57:36.137Z,36.70
2019-03-29T14:00:08.200Z,34.90
2019-03-29T14:02:36.788Z,34.90
2019-03-29T14:05:06.781Z,36.20
2019-03-29T14:07:35.409Z,36.70
2019-03-29T14:10:06.542Z,36.00
2019-03-29T14:12:35.245Z,36.60
2019-03-29T14:15:04.689Z,37.80
2019-03-29T14:17:33.347Z,38.00
2019-03-29T14:20:02.024Z,37.80
2019-03-29T14:22:30.605Z,37.40
2019-03-29T14:24:59.281Z,37.50
2019-03-29T14:27:27.838Z,36.70
2019-03-29T14:30:04.305Z,37.10
2019-03-29T14:32:26.625Z,37.40
2019-03-29T14:34:55.272Z,36.10
2019-03-29T14:37:23.913Z,36.10
2019-03-29T14:39:52.578Z,37.10
2019-03-29T14:42:21.117Z,36.50
2019-03-29T14:44:52.725Z,35.40
2019-03-29T14:47:20.169Z,36.80
2019-03-29T14:49:48.755Z,36.10
2019-03-29T14:52:17.453Z,35.00
2019-03-29T14:54:46.282Z,36.80
2019-03-29T14:57:14.933Z,36.30
2019-03-29T14:59:43.644Z,36.30
2019-03-29T15:02:12.310Z,37.30
2019-03-29T15:04:41.035Z,36.20
2019-03-29T15:07:09.746Z,36.20
2019-03-29T15:09:38.549Z,36.10
2019-03-29T15:12:07.361Z,35.20
2019-03-29T15:14:35.979Z,37.20
2019-03-29T15:17:04.742Z,37.40
2019-03-29T15:19:33.395Z,37.60
2019-03-29T15:22:02.104Z,37.00
2019-03-29T15:24:30.708Z,37.60
2019-03-29T15:26:59.410Z,37.20
2019-03-29T15:29:27.968Z,35.30
2019-03-29T15:31:56.638Z,37.30
2019-03-29T15:34:25.330Z,38.10
2019-03-29T15:36:54.034Z,40.00
2019-03-29T15:39:22.646Z,39.60
2019-03-29T15:41:51.275Z,38.20
2019-03-29T15:44:19.917Z,39.60
2019-03-29T15:46:48.589Z,37.80
2019-03-29T15:49:17.151Z,39.80
2019-03-29T15:51:45.769Z,39.00
2019-03-29T15:54:14.296Z,39.80
2019-03-29T15:56:43.046Z,39.60
2019-03-29T15:59:11.617Z,38.50
2019-03-29T16:01:40.286Z,38.90
2019-03-29T16:04:08.915Z,38.70
2019-03-29T16:06:37.570Z,39.90
2019-03-29T16:09:06.833Z,41.00
2019-03-29T16:11:35.469Z,39.90
2019-03-29T16:14:04.277Z,41.10
2019-03-29T16:16:32.896Z,41.20
2019-03-29T16:19:01.384Z,40.80
2019-03-29T16:21:31.531Z,41.00
2019-03-29T16:24:01.058Z,41.90
2019-03-29T16:26:31.557Z,42.20
2019-03-29T16:29:09.603Z,42.70
2019-03-29T16:31:38.998Z,42.60
2019-03-29T16:34:07.788Z,43.20
2019-03-29T16:36:58.473Z,43.60
2019-03-29T16:39:27.428Z,43.70
2019-03-29T16:42:03.175Z,43.90
2019-03-29T16:44:40.160Z,44.30
2019-03-29T16:47:14.972Z,44.90
2019-03-29T16:50:02.571Z,45.20
2019-03-29T16:52:35.908Z,46.50
2019-03-29T16:55:15.756Z,46.20
2019-03-29T16:57:44.628Z,46.00
2019-03-29T17:00:13.625Z,46.00
2019-03-29T17:02:43.957Z,46.60
2019-03-29T17:05:13.391Z,47.00
2019-03-29T17:07:44.016Z,47.50
2019-03-29T17:10:19.476Z,48.10
2019-03-29T17:12:48.498Z,48.00
2019-03-29T17:15:17.506Z,48.90
2019-03-29T17:17:46.251Z,48.90
2019-03-29T17:20:15.464Z,48.90
2019-03-29T17:22:44.209Z,48.90
2019-03-29T17:25:13.174Z,49.40
2019-03-29T17:27:42.262Z,49.40
2019-03-29T17:30:13.293Z,50.10
2019-03-29T17:32:43.723Z,50.80
2019-03-29T17:35:12.568Z,51.30
2019-03-29T17:37:41.891Z,51.10
2019-03-29T17:40:10.739Z,51.70
2019-03-29T17:42:39.943Z,52.10
2019-03-29T17:45:08.976Z,52.80
2019-03-29T17:47:37.777Z,53.20
2019-03-29T17:50:07.158Z,52.80
2019-03-29T17:52:36.163Z,53.60
2019-03-29T17:55:09.743Z,53.60
2019-03-29T17:57:38.556Z,54.30
2019-03-29T18:00:13.848Z,54.30
2019-03-29T18:02:48.873Z,54.40
2019-03-29T18:05:17.700Z,54.60
2019-03-29T18:07:46.270Z,54.90
2019-03-29T18:10:15.170Z,55.70
2019-03-29T18:12:56.724Z,55.80
2019-03-29T18:15:25.268Z,56.30
2019-03-29T18:17:53.997Z,56.30
2019-03-29T18:20:25.322Z,57.20
2019-03-29T18:22:55.924Z,56.90
2019-03-29T18:25:24.564Z,57.00
2019-03-29T18:27:53.352Z,58.00
2019-03-29T18:30:34.310Z,57.00
2019-03-29T18:33:03.094Z,57.60
2019-03-29T18:35:32.026Z,57.10
2019-03-29T18:38:00.805Z,58.00
2019-03-29T18:40:29.572Z,58.00
2019-03-29T18:43:02.726Z,57.90
2019-03-29T18:45:28.528Z,59.00
2019-03-29T18:47:57.184Z,58.30
2019-03-29T18:50:25.832Z,59.30
2019-03-29T18:52:54.599Z,59.40
2019-03-29T18:55:23.301Z,59.40
2019-03-29T18:57:51.850Z,59.80
2019-03-29T19:00:29.316Z,58.50
2019-03-29T19:02:58.092Z,59.10
2019-03-29T19:05:27.500Z,58.70
2019-03-29T19:07:56.168Z,59.00
2019-03-29T19:10:24.868Z,59.00
2019-03-29T19:12:53.581Z,59.10
2019-03-29T19:15:22.281Z,58.30
2019-03-29T19:17:51.084Z,58.70
2019-03-29T19:20:27.202Z,59.90
2019-03-29T19:22:49.961Z,59.30
2019-03-29T19:25:18.595Z,60.60
2019-03-29T19:27:47.146Z,60.30
2019-03-29T19:30:16.356Z,61.00
2019-03-29T19:32:45.069Z,61.20
2019-03-29T19:35:14.020Z,61.80
2019-03-29T19:37:42.798Z,61.60
2019-03-29T19:40:11.697Z,61.30
2019-03-29T19:42:40.446Z,61.20
2019-03-29T19:45:12.385Z,60.90
2019-03-29T19:47:41.150Z,61.90
2019-03-29T19:50:10.440Z,61.60
2019-03-29T19:52:39.318Z,61.80
2019-03-29T19:55:07.922Z,62.60
2019-03-29T19:57:36.656Z,61.20
2019-03-29T20:03:07.865Z,61.60
2019-03-29T20:05:38.109Z,62.50
2019-03-29T20:08:06.777Z,62.50
2019-03-29T20:10:35.533Z,62.50
2019-03-29T20:13:04.364Z,61.90
2019-03-29T20:15:33.107Z,62.20
2019-03-29T20:18:01.782Z,62.90
2019-03-29T20:20:39.661Z,62.90
2019-03-29T20:23:13.074Z,63.10
2019-03-29T20:25:42.094Z,63.20
2019-03-29T20:33:50.299Z,62.50
2019-03-29T20:34:24.458Z,61.90
2019-03-29T20:37:09.065Z,61.90
2019-03-29T20:42:39.398Z,61.50
2019-03-29T20:45:08.866Z,62.10
2019-03-29T20:47:42.251Z,63.00
2019-03-29T21:07:34.824Z,63.90
2019-03-29T21:13:34.490Z,65.60
2019-03-29T21:22:04.583Z,66.70
2019-03-29T21:24:45.451Z,66.60
2019-03-29T21:27:20.039Z,66.30
2019-03-29T21:32:50.123Z,66.80
2019-03-29T21:35:23.980Z,67.30
2019-03-29T21:37:55.070Z,67.30
2019-03-29T21:40:29.694Z,67.30
2019-03-29T21:43:05.219Z,68.10
2019-03-29T21:45:39.943Z,69.50
2019-03-29T21:48:27.379Z,69.80
2019-03-29T21:50:39.268Z,69.80
2019-03-29T21:53:14.396Z,69.30
2019-03-29T21:55:46.262Z,69.00
2019-03-29T21:58:15.290Z,69.40
2019-03-29T22:00:46.907Z,69.50
2019-03-29T22:03:15.586Z,69.50
2019-03-29T22:05:44.421Z,70.00
2019-03-29T22:08:13.417Z,70.30
2019-03-29T22:11:05.960Z,70.60
2019-03-29T22:13:44.702Z,71.00
2019-03-29T22:16:25.016Z,71.30
2019-03-29T22:19:51.977Z,71.10
2019-03-29T22:21:37.447Z,71.70
2019-03-29T22:24:11.776Z,71.80
2019-03-29T22:29:46.168Z,73.00
2019-03-29T22:32:21.785Z,73.20
2019-03-29T22:37:49.354Z,72.70
2019-03-29T22:40:18.651Z,73.10
2019-03-29T22:43:01.014Z,73.20
2019-03-29T22:45:38.093Z,72.90
2019-03-29T22:48:07.014Z,72.60
2019-03-29T22:50:47.245Z,72.40
2019-03-29T22:53:19.402Z,74.00
2019-03-29T22:55:48.290Z,73.60
2019-03-29T22:58:18.660Z,73.40
2019-03-29T23:01:08.097Z,73.20
